Time;durP1;ratioP1;P1;durP2;ratioP2;P2;SDS_P1;SDS_P2;PMS_P1;PMS_P2;Temp;Humidity;BMP_temperature;BMP_pressure;BME280_temperature;BME280_humidity;BME280_pressure;Samples;Min_cycle;Max_cycle;Signal;HPM_P1;HPM_P2
2022/10/20 00:01:41;;;;;;;10.50;4.13;;;;;;;10.26;100.00;101645.53;4766899;30;20466;-58
2022/10/20 00:04:08;;;;;;;8.85;4.40;;;;;;;10.28;100.00;101643.41;4753697;30;20052;-60
2022/10/20 00:06:36;;;;;;;11.90;4.05;;;;;;;10.27;100.00;101637.16;4748469;30;20049;-57
2022/10/20 00:09:04;;;;;;;9.15;3.83;;;;;;;10.23;100.00;101628.63;4747730;30;20040;-58
2022/10/20 00:11:31;;;;;;;8.75;3.85;;;;;;;10.22;100.00;101629.72;4741155;30;20052;-51
2022/10/20 00:14:00;;;;;;;9.20;4.40;;;;;;;10.24;100.00;101624.00;4765907;30;20098;-55
2022/10/20 00:16:30;;;;;;;8.30;4.05;;;;;;;10.32;100.00;101620.91;4753955;30;20131;-55
2022/10/20 00:18:58;;;;;;;9.05;3.90;;;;;;;10.36;100.00;101621.22;4753080;30;20048;-58
2022/10/20 00:21:27;;;;;;;9.75;4.03;;;;;;;10.32;100.00;101612.75;4754444;30;20044;-57
2022/10/20 00:23:54;;;;;;;12.00;4.35;;;;;;;10.31;100.00;101599.34;4745337;30;20106;-56
2022/10/20 00:26:26;;;;;;;9.60;4.40;;;;;;;10.27;100.00;101598.16;4751138;30;20135;-56
2022/10/20 00:28:55;;;;;;;13.05;4.60;;;;;;;10.22;100.00;101594.31;4751951;30;20052;-57
2022/10/20 00:31:23;;;;;;;11.88;4.43;;;;;;;10.15;100.00;101580.03;4768171;30;20167;-56
2022/10/20 00:33:51;;;;;;;11.13;4.68;;;;;;;10.09;100.00;101589.16;4753613;30;20454;-58
2022/10/20 00:36:21;;;;;;;10.80;4.45;;;;;;;10.11;100.00;101584.28;4766264;30;20543;-59
2022/10/20 00:38:49;;;;;;;10.38;4.30;;;;;;;10.13;100.00;101593.06;4752665;30;20036;-59
2022/10/20 00:41:19;;;;;;;13.10;4.50;;;;;;;10.12;100.00;101583.22;4736392;30;20049;-58
2022/10/20 00:43:55;;;;;;;9.60;4.47;;;;;;;10.15;100.00;101582.75;4742743;30;20666;-55
2022/10/20 00:46:35;;;;;;;10.18;4.50;;;;;;;10.13;100.00;101584.88;4745812;30;20119;-59
2022/10/20 00:49:18;;;;;;;11.82;4.53;;;;;;;10.11;100.00;101595.19;4739402;30;20106;-59
2022/10/20 00:51:46;;;;;;;9.95;4.85;;;;;;;10.09;100.00;101581.00;4749323;30;20048;-57
2022/10/20 00:54:17;;;;;;;9.50;4.53;;;;;;;10.04;100.00;101567.28;4753134;30;20052;-54
2022/10/20 00:56:46;;;;;;;9.43;4.30;;;;;;;10.06;100.00;101570.59;4750919;30;20041;-58
2022/10/20 00:59:17;;;;;;;11.77;5.05;;;;;;;10.03;100.00;101560.22;4758157;30;20105;-56
2022/10/20 01:01:45;;;;;;;8.50;4.78;;;;;;;10.11;100.00;101559.78;4771799;30;20056;-57
2022/10/20 01:04:13;;;;;;;12.23;5.10;;;;;;;10.20;100.00;101552.88;4759443;30;20056;-58
2022/10/20 01:06:40;;;;;;;10.98;4.95;;;;;;;10.21;100.00;101549.06;4755705;30;20049;-58
2022/10/20 01:09:08;;;;;;;10.02;4.45;;;;;;;10.14;100.00;101540.22;4752756;30;20048;-60
2022/10/20 01:12:16;;;;;;;10.80;4.60;;;;;;;10.13;100.00;101548.66;4753247;30;20063;-57
2022/10/20 01:15:09;;;;;;;12.27;5.10;;;;;;;10.08;100.00;101557.56;4761570;30;20119;-55
2022/10/20 01:17:52;;;;;;;11.05;4.85;;;;;;;10.03;100.00;101554.75;4761636;30;20052;-54
2022/10/20 01:20:52;;;;;;;9.32;4.88;;;;;;;10.02;100.00;101532.13;4758724;30;20044;-55
2022/10/20 01:23:42;;;;;;;10.18;5.35;;;;;;;9.94;100.00;101529.00;4753498;30;20048;-57
2022/10/20 01:26:27;;;;;;;10.20;4.90;;;;;;;9.90;100.00;101527.84;4753398;30;20060;-59
2022/10/20 01:29:15;;;;;;;9.23;5.10;;;;;;;9.90;100.00;101522.41;4766958;30;20102;-62
2022/10/20 01:32:01;;;;;;;11.32;5.25;;;;;;;9.98;100.00;101532.88;4750479;30;20055;-59
2022/10/20 01:34:47;;;;;;;13.77;5.30;;;;;;;9.99;100.00;101537.25;4767104;30;20455;-56
2022/10/20 01:37:43;;;;;;;11.40;4.70;;;;;;;9.95;100.00;101506.16;4751437;30;20055;-58
2022/10/20 01:40:26;;;;;;;12.65;5.38;;;;;;;9.96;100.00;101492.31;4751343;30;20086;-60
2022/10/20 01:43:01;;;;;;;12.63;5.38;;;;;;;9.93;100.00;101484.63;4751425;30;20399;-58
2022/10/20 01:45:31;;;;;;;10.73;4.55;;;;;;;9.93;100.00;101472.91;4750450;30;20052;-58
2022/10/20 01:48:02;;;;;;;14.00;5.53;;;;;;;9.91;100.00;101477.75;4766337;30;20048;-57
2022/10/20 01:50:31;;;;;;;8.98;5.00;;;;;;;9.89;100.00;101477.22;4751888;30;20055;-58
2022/10/20 01:52:58;;;;;;;9.90;4.97;;;;;;;9.88;100.00;101475.53;4760449;30;20080;-57
2022/10/20 01:55:26;;;;;;;13.13;6.00;;;;;;;9.80;100.00;101464.00;4766451;30;20503;-58
2022/10/20 01:58:27;;;;;;;10.43;5.20;;;;;;;9.76;100.00;101465.56;4751635;30;20503;-58
2022/10/20 02:01:03;;;;;;;14.75;5.72;;;;;;;9.79;100.00;101465.09;4752794;30;20040;-59
2022/10/20 02:03:53;;;;;;;10.70;5.25;;;;;;;9.78;100.00;101455.25;4750231;30;20059;-58
2022/10/20 02:06:39;;;;;;;8.93;5.25;;;;;;;9.74;100.00;101459.56;4751250;30;20074;-58
2022/10/20 02:09:12;;;;;;;8.45;4.95;;;;;;;9.77;100.00;101461.78;4752715;30;20459;-57
2022/10/20 02:11:48;;;;;;;10.90;5.90;;;;;;;9.79;100.00;101465.09;4766090;30;20067;-58
2022/10/20 02:14:17;;;;;;;11.50;5.35;;;;;;;9.80;100.00;101474.88;4764273;30;20106;-60
2022/10/20 02:16:48;;;;;;;11.63;6.10;;;;;;;9.85;100.00;101470.59;4756500;30;20044;-59
2022/10/20 02:19:19;;;;;;;11.07;5.63;;;;;;;9.91;100.00;101464.16;4751936;30;20063;-58
2022/10/20 02:21:47;;;;;;;14.95;5.82;;;;;;;9.92;100.00;101465.81;4723374;30;20048;-60
2022/10/20 02:24:16;;;;;;;11.23;5.82;;;;;;;9.90;100.00;101459.78;4736768;30;20504;-57
2022/10/20 02:26:44;;;;;;;13.05;6.13;;;;;;;9.88;100.00;101459.22;4750110;30;20462;-59
2022/10/20 02:29:16;;;;;;;10.20;5.47;;;;;;;9.90;100.00;101457.88;4750891;30;20056;-59
2022/10/20 02:31:44;;;;;;;10.23;6.13;;;;;;;9.94;100.00;101452.78;4752657;30;20102;-58
2022/10/20 02:34:12;;;;;;;9.68;6.07;;;;;;;9.98;100.00;101454.78;4751284;30;20055;-58
2022/10/20 02:36:41;;;;;;;12.45;5.82;;;;;;;10.00;100.00;101459.94;4750504;30;20053;-57
2022/10/20 02:39:10;;;;;;;12.48;5.90;;;;;;;10.02;100.00;101450.47;4750928;30;20048;-57
2022/10/20 02:41:37;;;;;;;12.98;6.07;;;;;;;9.99;100.00;101450.16;4765999;30;20052;-57
2022/10/20 02:44:05;;;;;;;12.60;5.82;;;;;;;9.96;100.00;101442.47;4765104;30;20052;-58
2022/10/20 02:46:33;;;;;;;13.60;6.20;;;;;;;9.93;100.00;101441.09;4746720;30;20083;-57
2022/10/20 02:49:00;;;;;;;13.68;6.05;;;;;;;9.91;100.00;101437.78;4751532;30;20061;-57
2022/10/20 02:51:28;;;;;;;13.15;5.82;;;;;;;9.91;100.00;101435.06;4752126;30;20565;-57
2022/10/20 02:53:55;;;;;;;14.60;5.60;;;;;;;9.89;100.00;101425.50;4752425;30;20135;-59
2022/10/20 02:56:23;;;;;;;10.95;6.32;;;;;;;9.90;100.00;101413.53;4750748;30;20569;-55
2022/10/20 02:58:56;;;;;;;11.13;5.75;;;;;;;9.89;100.00;101395.56;4752199;30;20461;-54
2022/10/20 03:01:24;;;;;;;11.65;6.55;;;;;;;9.85;100.00;101394.41;4755473;30;20393;-55
2022/10/20 03:03:57;;;;;;;12.88;6.18;;;;;;;9.78;100.00;101380.94;4757280;30;20508;-58
2022/10/20 03:06:25;;;;;;;15.05;6.28;;;;;;;9.74;100.00;101386.09;4751194;30;20049;-58
2022/10/20 03:08:52;;;;;;;11.57;6.13;;;;;;;9.74;100.00;101372.47;4755150;30;20093;-58
2022/10/20 03:11:20;;;;;;;12.50;6.10;;;;;;;9.73;100.00;101370.81;4753923;30;20070;-57
2022/10/20 03:13:48;;;;;;;12.38;6.10;;;;;;;9.79;100.00;101358.94;4736669;30;20044;-57
2022/10/20 03:16:15;;;;;;;9.85;6.05;;;;;;;9.84;100.00;101357.34;4748878;30;20056;-56
2022/10/20 03:18:46;;;;;;;14.20;6.72;;;;;;;9.84;100.00;101343.75;4755463;30;20106;-57
2022/10/20 03:21:13;;;;;;;11.52;6.15;;;;;;;9.80;100.00;101359.75;4755802;30;20040;-58
2022/10/20 03:23:41;;;;;;;9.27;5.35;;;;;;;9.81;100.00;101362.25;4754891;30;20450;-58
2022/10/20 03:26:10;;;;;;;11.20;6.15;;;;;;;9.83;100.00;101364.69;4752108;30;20060;-55
2022/10/20 03:28:38;;;;;;;10.63;5.90;;;;;;;9.77;100.00;101342.03;4754543;30;20055;-58
2022/10/20 03:31:07;;;;;;;11.95;5.80;;;;;;;9.74;100.00;101331.66;4753523;30;20069;-58
2022/10/20 03:33:34;;;;;;;13.68;5.90;;;;;;;9.72;100.00;101317.47;4754367;30;20044;-59
2022/10/20 03:36:02;;;;;;;11.70;6.28;;;;;;;9.79;100.00;101323.56;4768516;30;20074;-59
2022/10/20 03:38:30;;;;;;;11.07;6.32;;;;;;;9.80;100.00;101325.19;4753321;30;20119;-57
2022/10/20 03:40:58;;;;;;;13.25;6.32;;;;;;;9.79;100.00;101325.47;4754417;30;20059;-59
2022/10/20 03:43:25;;;;;;;10.70;6.40;;;;;;;9.78;100.00;101321.91;4754321;30;20060;-56
2022/10/20 03:46:03;;;;;;;10.32;5.60;;;;;;;9.84;100.00;101319.25;4747168;30;20052;-59
2022/10/20 03:48:31;;;;;;;13.75;6.38;;;;;;;9.83;100.00;101304.81;4738663;30;20052;-57
2022/10/20 03:51:00;;;;;;;13.93;6.40;;;;;;;9.79;100.00;101304.50;4756143;30;20082;-55
2022/10/20 03:53:28;;;;;;;10.10;6.40;;;;;;;9.74;100.00;101309.03;4765116;30;20059;-56
2022/10/20 03:55:55;;;;;;;12.15;6.03;;;;;;;9.73;100.00;101308.22;4752551;30;20103;-57
2022/10/20 03:58:23;;;;;;;12.88;6.20;;;;;;;9.70;100.00;101311.44;4753328;30;20113;-57
2022/10/20 04:00:51;;;;;;;10.98;6.05;;;;;;;9.74;100.00;101309.88;4754162;30;20044;-58
2022/10/20 04:03:19;;;;;;;12.70;6.40;;;;;;;9.77;100.00;101306.66;4753846;30;20052;-56
2022/10/20 04:05:47;;;;;;;18.10;6.03;;;;;;;9.74;100.00;101296.28;4753201;30;20117;-58
2022/10/20 04:08:14;;;;;;;13.30;6.68;;;;;;;9.78;100.00;101294.69;4754131;30;20052;-57
2022/10/20 04:10:47;;;;;;;13.55;5.93;;;;;;;9.80;100.00;101300.69;4752348;30;20106;-60
2022/10/20 04:13:14;;;;;;;12.82;6.53;;;;;;;9.76;100.00;101298.72;4751011;30;20056;-58
2022/10/20 04:15:42;;;;;;;16.60;7.38;;;;;;;9.75;100.00;101292.47;4755217;30;20044;-59
2022/10/20 04:18:09;;;;;;;10.27;6.10;;;;;;;9.80;100.00;101292.53;4758632;30;20531;-57
2022/10/20 04:20:37;;;;;;;15.02;6.20;;;;;;;9.87;100.00;101294.28;4752901;30;20044;-59
2022/10/20 04:23:10;;;;;;;15.18;6.35;;;;;;;9.87;100.00;101294.28;4753918;30;20113;-57
2022/10/20 04:25:44;;;;;;;14.48;6.70;;;;;;;9.84;100.00;101289.31;4754708;30;20060;-57
2022/10/20 04:28:16;;;;;;;11.23;6.70;;;;;;;9.79;100.00;101288.19;4751437;30;20064;-56
2022/10/20 04:30:45;;;;;;;13.82;6.38;;;;;;;9.82;100.00;101281.41;4753157;30;20090;-59
2022/10/20 04:33:13;;;;;;;12.50;6.38;;;;;;;9.88;100.00;101274.13;4752824;30;20045;-58
2022/10/20 04:35:40;;;;;;;13.52;6.55;;;;;;;9.90;100.00;101266.53;4762203;30;20476;-60
2022/10/20 04:38:08;;;;;;;11.45;6.57;;;;;;;9.89;100.00;101260.28;4754239;30;20048;-57
2022/10/20 04:40:36;;;;;;;10.77;6.57;;;;;;;9.88;100.00;101246.91;4751477;30;20044;-55
2022/10/20 04:43:03;;;;;;;12.63;6.40;;;;;;;9.85;100.00;101241.97;4753227;30;20052;-57
2022/10/20 04:45:31;;;;;;;14.60;7.30;;;;;;;9.79;100.00;101239.19;4753904;30;20056;-55
2022/10/20 04:47:58;;;;;;;11.63;5.97;;;;;;;9.81;100.00;101247.94;4754233;30;20048;-53
2022/10/20 04:50:26;;;;;;;14.15;6.95;;;;;;;9.87;100.00;101248.81;4754016;30;20044;-56
2022/10/20 04:53:20;;;;;;;15.07;6.47;;;;;;;9.93;100.00;101230.63;4746950;30;20071;-56
2022/10/20 04:55:56;;;;;;;9.50;6.35;;;;;;;9.92;100.00;101232.53;4752597;30;20479;-60
2022/10/20 04:58:24;;;;;;;;;;;;;;;9.90;100.00;101228.44;4754005;30;20463;-58
2022/10/20 05:00:51;;;;;;;12.43;6.55;;;;;;;9.89;100.00;101226.81;4753730;30;19926;-58
2022/10/20 05:03:19;;;;;;;13.00;6.30;;;;;;;9.89;100.00;101226.81;4764657;30;20056;-57
2022/10/20 05:05:47;;;;;;;13.73;6.80;;;;;;;9.92;100.00;101209.97;4765105;30;20131;-56
2022/10/20 05:08:15;;;;;;;15.93;7.80;;;;;;;9.90;100.00;101206.66;4751548;30;20530;-55
2022/10/20 05:10:43;;;;;;;14.70;7.53;;;;;;;9.86;100.00;101210.97;4752939;30;20458;-57
2022/10/20 05:13:10;;;;;;;13.38;6.95;;;;;;;9.87;100.00;101210.72;4754019;30;20102;-54
2022/10/20 05:15:38;;;;;;;12.20;7.35;;;;;;;9.86;100.00;101202.78;4752981;30;20044;-57
2022/10/20 05:18:05;;;;;;;12.65;7.05;;;;;;;9.85;100.00;101193.00;4752930;30;20086;-59
2022/10/20 05:20:33;;;;;;;14.43;6.95;;;;;;;9.86;100.00;101189.19;4752190;30;20102;-59
2022/10/20 05:23:12;;;;;;;13.18;7.20;;;;;;;9.88;100.00;101185.13;4753778;30;20056;-60
2022/10/20 05:25:40;;;;;;;12.95;6.85;;;;;;;9.94;100.00;101188.75;4751678;30;20055;-56
2022/10/20 05:28:07;;;;;;;13.77;6.85;;;;;;;9.97;100.00;101185.50;4753041;30;20397;-57
2022/10/20 05:30:36;;;;;;;10.05;6.90;;;;;;;10.00;100.00;101206.78;4749505;30;20109;-55
2022/10/20 05:33:04;;;;;;;11.40;6.47;;;;;;;10.05;100.00;101219.63;4750796;30;20068;-59
2022/10/20 05:35:32;;;;;;;10.73;6.47;;;;;;;10.08;100.00;101208.22;4752892;30;20423;-58
2022/10/20 05:37:59;;;;;;;19.48;7.05;;;;;;;10.10;100.00;101181.56;4757981;30;20070;-54
2022/10/20 05:40:27;;;;;;;14.38;7.68;;;;;;;10.09;100.00;101156.25;4761397;30;20059;-55
2022/10/20 05:42:56;;;;;;;16.88;7.47;;;;;;;10.07;100.00;101152.94;4760219;30;20049;-57
2022/10/20 05:45:23;;;;;;;11.38;6.40;;;;;;;10.08;100.00;101164.66;4752789;30;20074;-57
2022/10/20 05:47:51;;;;;;;10.05;6.43;;;;;;;10.10;100.00;101196.03;4753650;30;20055;-53
2022/10/20 05:50:19;;;;;;;12.70;6.55;;;;;;;10.10;100.00;101231.41;4764912;30;20060;-55
2022/10/20 05:52:46;;;;;;;12.48;7.22;;;;;;;10.13;100.00;101220.00;4764166;30;20096;-53
2022/10/20 05:55:14;;;;;;;13.43;7.32;;;;;;;10.12;100.00;101193.84;4753606;30;20168;-54
2022/10/20 05:57:41;;;;;;;15.07;7.72;;;;;;;10.11;100.00;101208.53;4751929;30;20419;-56
2022/10/20 06:00:10;;;;;;;13.75;7.10;;;;;;;10.13;100.00;101205.56;4753170;30;20117;-58
2022/10/20 06:02:40;;;;;;;13.05;7.40;;;;;;;10.12;100.00;101193.84;4746787;30;20052;-57
2022/10/20 06:05:08;;;;;;;13.07;7.30;;;;;;;10.09;100.00;101194.34;4749127;30;20044;-56
2022/10/20 06:07:35;;;;;;;11.98;7.53;;;;;;;10.08;100.00;101192.72;4751432;30;20075;-56
2022/10/20 06:10:04;;;;;;;13.48;7.75;;;;;;;10.08;100.00;101200.91;4085606;30;10000678;-54
2022/10/20 06:12:31;;;;;;;16.33;8.63;;;;;;;10.09;100.00;101199.81;4717153;30;20059;-55
2022/10/20 06:15:00;;;;;;;12.88;7.63;;;;;;;10.09;100.00;101199.81;4716521;30;20118;-55
2022/10/20 06:17:27;;;;;;;13.10;7.15;;;;;;;10.10;100.00;101195.16;4719696;30;20041;-54
2022/10/20 06:19:55;;;;;;;13.60;7.43;;;;;;;10.11;100.00;101203.09;4731176;30;20049;-54
2022/10/20 06:22:22;;;;;;;14.45;8.45;;;;;;;10.18;100.00;101201.00;4732783;30;20055;-57
2022/10/20 06:24:50;;;;;;;17.13;8.00;;;;;;;10.23;100.00;101202.94;4718432;30;20120;-57
2022/10/20 06:27:17;;;;;;;15.15;7.88;;;;;;;10.27;100.00;101200.53;4733787;30;20052;-57
2022/10/20 06:29:45;;;;;;;11.10;6.90;;;;;;;10.32;100.00;101195.16;4733262;30;20064;-55
2022/10/20 06:32:16;;;;;;;13.25;7.85;;;;;;;10.34;100.00;101184.84;4734738;30;20051;-55
2022/10/20 06:34:44;;;;;;;18.27;8.02;;;;;;;10.35;100.00;101187.31;4734112;30;20102;-53
2022/10/20 06:37:12;;;;;;;16.45;6.72;;;;;;;10.38;100.00;101194.16;4727044;30;20047;-53
2022/10/20 06:39:39;;;;;;;13.30;7.78;;;;;;;10.40;100.00;101200.16;4719143;30;20513;-54
2022/10/20 06:42:07;;;;;;;19.77;8.38;;;;;;;10.42;100.00;101201.53;4733717;30;20044;-54
2022/10/20 06:44:44;;;;;;;15.25;7.07;;;;;;;10.49;100.00;101214.16;4734877;30;20079;-56
2022/10/20 06:47:12;;;;;;;16.23;7.68;;;;;;;10.56;100.00;101209.28;4724791;30;20052;-56
2022/10/20 06:49:39;;;;;;;11.48;6.88;;;;;;;10.57;100.00;101198.13;4734938;30;20072;-54
2022/10/20 06:52:07;;;;;;;11.63;7.25;;;;;;;10.58;100.00;101197.06;4734913;30;20401;-56
2022/10/20 06:54:35;;;;;;;15.85;7.18;;;;;;;10.56;100.00;101188.34;4734744;30;20056;-56
2022/10/20 06:57:02;;;;;;;10.30;6.63;;;;;;;10.55;100.00;101170.31;4718613;30;20428;-54
2022/10/20 06:59:30;;;;;;;13.15;7.60;;;;;;;10.54;100.00;101171.41;4734443;30;20583;-54
2022/10/20 07:01:57;;;;;;;13.00;7.57;;;;;;;10.55;100.00;101180.41;4734555;30;20048;-55
2022/10/20 07:04:25;;;;;;;12.02;6.50;;;;;;;10.56;100.00;101188.34;4734886;30;20052;-53
2022/10/20 07:06:53;;;;;;;14.27;6.32;;;;;;;10.57;100.00;101173.63;4723123;30;20053;-52
2022/10/20 07:09:20;;;;;;;13.90;6.95;;;;;;;10.61;100.00;101173.94;4735207;30;20424;-50
2022/10/20 07:11:52;;;;;;;12.15;6.97;;;;;;;10.62;100.00;101170.94;4749886;30;20053;-51
2022/10/20 07:14:19;;;;;;;16.63;7.70;;;;;;;10.63;100.00;101172.59;4752358;30;20056;-50
2022/10/20 07:16:47;;;;;;;11.80;6.90;;;;;;;10.65;100.00;101169.59;4747049;30;20578;-53
2022/10/20 07:19:15;;;;;;;12.40;7.63;;;;;;;10.66;100.00;101166.63;4752230;30;20052;-55
2022/10/20 07:21:42;;;;;;;13.52;7.20;;;;;;;10.68;100.00;101158.19;4762903;30;20044;-52
2022/10/20 07:24:13;;;;;;;12.10;7.25;;;;;;;10.69;100.00;101159.00;4753810;30;20139;-54
2022/10/20 07:26:41;;;;;;;12.80;7.10;;;;;;;10.70;100.00;101164.16;4750956;30;20424;-52
2022/10/20 07:29:09;;;;;;;11.98;7.40;;;;;;;10.73;100.00;101169.13;4751888;30;20037;-51
2022/10/20 07:31:40;;;;;;;14.02;7.28;;;;;;;10.75;100.00;101168.84;4751272;30;20564;-54
2022/10/20 07:34:09;;;;;;;14.10;7.57;;;;;;;10.77;100.00;101172.13;4751259;30;20508;-50
2022/10/20 07:36:51;;;;;;;15.38;7.70;;;;;;;10.80;100.00;101175.19;4760482;30;20094;-55
2022/10/20 07:39:19;;;;;;;13.15;7.07;;;;;;;10.83;100.00;101182.00;4752666;30;20044;-55
2022/10/20 07:41:47;;;;;;;15.70;7.10;;;;;;;10.85;100.00;101185.31;4752474;30;20056;-56
2022/10/20 07:44:15;;;;;;;15.15;6.85;;;;;;;10.87;100.00;101180.38;4751223;30;20048;-57
2022/10/20 07:46:43;;;;;;;15.18;7.47;;;;;;;10.88;100.00;101179.31;4766028;30;20048;-56
2022/10/20 07:49:11;;;;;;;15.68;7.35;;;;;;;10.88;100.00;101168.41;4755615;30;20102;-51
2022/10/20 07:51:58;;;;;;;14.20;7.00;;;;;;;10.92;100.00;101185.06;4763457;30;20512;-51
2022/10/20 07:54:26;;;;;;;15.05;7.35;;;;;;;10.96;100.00;101170.63;4746492;30;20044;-50
2022/10/20 07:56:54;;;;;;;10.23;6.15;;;;;;;11.01;100.00;101173.41;4754887;30;20051;-51
2022/10/20 07:59:21;;;;;;;14.93;7.18;;;;;;;11.04;100.00;101172.91;4755289;30;20097;-53
2022/10/20 08:01:49;;;;;;;20.75;7.47;;;;;;;11.04;100.00;101164.72;4755485;30;20048;-53
2022/10/20 08:04:19;;;;;;;14.15;6.88;;;;;;;11.06;100.00;101164.44;4755261;30;20044;-51
2022/10/20 08:06:47;;;;;;;14.55;6.82;;;;;;;11.08;100.00;101171.25;4755070;30;20056;-54
2022/10/20 08:09:15;;;;;;;11.73;7.50;;;;;;;11.09;100.00;101178.38;4754876;30;20056;-54
2022/10/20 08:11:42;;;;;;;14.27;7.68;;;;;;;11.13;100.00;101170.47;4754855;30;20064;-53
2022/10/20 08:14:10;;;;;;;15.23;7.30;;;;;;;11.15;100.00;101168.31;4754939;30;20055;-55
2022/10/20 08:16:37;;;;;;;13.05;7.38;;;;;;;11.20;100.00;101167.53;4754726;30;20102;-51
2022/10/20 08:19:06;;;;;;;14.40;8.23;;;;;;;11.20;100.00;101162.06;4752084;30;20106;-54
2022/10/20 08:21:51;;;;;;;12.27;7.40;;;;;;;11.22;100.00;101158.00;4741472;30;20067;-54
2022/10/20 08:24:19;;;;;;;11.70;7.18;;;;;;;11.23;100.00;101159.66;4754756;30;20565;-56
2022/10/20 08:26:47;;;;;;;21.33;14.85;;;;;;;11.28;100.00;101156.09;4753387;30;20048;-53
2022/10/20 08:29:14;;;;;;;19.25;10.38;;;;;;;11.30;100.00;101154.78;4749314;30;20051;-52
2022/10/20 08:31:43;;;;;;;14.13;7.53;;;;;;;11.35;100.00;101167.59;4755178;30;20060;-54
2022/10/20 08:34:11;;;;;;;11.75;7.50;;;;;;;11.36;100.00;101155.63;4754958;30;20394;-54
2022/10/20 08:36:38;;;;;;;18.55;8.05;;;;;;;11.38;100.00;101153.44;4754540;30;20044;-53
2022/10/20 08:39:06;;;;;;;15.15;7.50;;;;;;;11.40;100.00;101137.66;4752987;30;20109;-53
2022/10/20 08:41:39;;;;;;;13.15;6.95;;;;;;;11.44;100.00;101140.66;4754342;30;20055;-56
2022/10/20 08:44:28;;;;;;;16.92;7.93;;;;;;;11.44;100.00;101137.91;4765783;30;20135;-54
2022/10/20 08:46:56;;;;;;;12.95;7.70;;;;;;;11.44;100.00;101136.00;4763248;30;20102;-53
2022/10/20 08:49:28;;;;;;;13.80;7.80;;;;;;;11.45;100.00;101143.13;4745705;30;20505;-53
2022/10/20 08:51:57;;;;;;;12.50;7.47;;;;;;;11.47;100.00;101143.69;4753005;30;20051;-53
2022/10/20 08:54:25;;;;;;;17.35;7.75;;;;;;;11.49;100.00;101146.94;4754580;30;20082;-54
2022/10/20 08:56:52;;;;;;;13.73;7.65;;;;;;;11.52;100.00;101157.34;4753179;30;20044;-53
2022/10/20 08:59:28;;;;;;;16.23;7.60;;;;;;;11.51;100.00;101138.50;4744107;30;20048;-55
2022/10/20 09:01:56;;;;;;;14.90;7.85;;;;;;;11.52;100.00;101145.63;4753976;30;20074;-55
2022/10/20 09:04:27;;;;;;;14.55;7.72;;;;;;;11.53;100.00;101136.31;4752730;30;20079;-53
2022/10/20 09:06:58;;;;;;;13.80;8.05;;;;;;;11.55;100.00;101138.81;4763102;30;20095;-51
2022/10/20 09:09:28;;;;;;;17.80;8.73;;;;;;;11.57;100.00;101125.69;4753816;30;20059;-52
2022/10/20 09:12:04;;;;;;;14.52;8.35;;;;;;;11.60;100.00;101126.00;4767006;30;20420;-51
2022/10/20 09:14:34;;;;;;;15.05;8.35;;;;;;;11.62;100.00;101123.00;4767343;30;20398;-52
2022/10/20 09:17:03;;;;;;;14.35;7.47;;;;;;;11.66;100.00;101124.91;4750966;30;20051;-55
2022/10/20 09:19:35;;;;;;;15.65;7.65;;;;;;;11.71;100.00;101111.28;4754511;30;20051;-55
2022/10/20 09:22:05;;;;;;;13.50;6.97;;;;;;;11.76;100.00;101115.94;4767270;30;20055;-56
2022/10/20 09:24:35;;;;;;;12.35;7.88;;;;;;;11.80;100.00;101119.75;4768139;30;20070;-55
2022/10/20 09:27:20;;;;;;;12.10;7.22;;;;;;;11.82;100.00;101128.50;4745107;30;20103;-55
2022/10/20 09:29:47;;;;;;;20.13;8.68;;;;;;;11.87;100.00;101131.28;4744601;30;20055;-57
2022/10/20 09:32:30;;;;;;;16.73;8.80;;;;;;;11.91;100.00;101120.66;4743780;30;20044;-56
2022/10/20 09:35:26;;;;;;;15.88;8.05;;;;;;;11.92;100.00;101117.63;4742614;30;20055;-56
2022/10/20 09:38:00;;;;;;;15.77;8.40;;;;;;;11.93;100.00;101118.47;4737767;30;20500;-53
2022/10/20 09:40:28;;;;;;;17.25;8.88;;;;;;;11.92;100.00;101117.63;4744800;30;20071;-54
2022/10/20 09:43:19;;;;;;;15.55;9.90;;;;;;;11.92;100.00;101120.38;4749172;30;20056;-53
2022/10/20 09:45:52;;;;;;;17.40;9.88;;;;;;;11.92;100.00;101125.00;4733165;30;20562;-54
2022/10/20 09:48:35;;;;;;;16.52;9.25;;;;;;;11.93;100.00;101130.22;4751445;30;20575;-55
2022/10/20 09:51:06;;;;;;;15.30;9.77;;;;;;;11.93;100.00;101130.22;4747285;30;20055;-56
2022/10/20 09:53:48;;;;;;;20.55;10.02;;;;;;;11.94;100.00;101134.56;4752169;30;20051;-55
2022/10/20 09:56:33;;;;;;;16.58;10.70;;;;;;;11.94;100.00;101118.19;4753363;30;20064;-54
2022/10/20 09:59:06;;;;;;;17.23;10.60;;;;;;;11.96;100.00;101125.31;4741227;30;20105;-55
2022/10/20 10:01:35;;;;;;;19.30;10.68;;;;;;;11.94;100.00;101112.72;4766418;30;20561;-53
2022/10/20 10:04:03;;;;;;;19.08;9.98;;;;;;;11.97;100.00;101113.28;4753029;30;20052;-56
2022/10/20 10:06:36;;;;;;;20.88;9.95;;;;;;;11.98;100.00;101109.44;4758796;30;20056;-55
2022/10/20 10:09:31;;;;;;;13.40;8.70;;;;;;;12.00;100.00;101096.34;4762576;30;20056;-53
2022/10/20 10:12:19;;;;;;;16.15;8.27;;;;;;;12.01;100.00;101108.94;4751048;30;20071;-53
2022/10/20 10:14:54;;;;;;;16.10;9.63;;;;;;;12.01;100.00;101109.75;4751685;30;20055;-51
2022/10/20 10:17:48;;;;;;;14.07;9.48;;;;;;;12.02;100.00;101121.47;4763104;30;20123;-51
2022/10/20 10:20:16;;;;;;;17.25;9.40;;;;;;;12.05;100.00;101115.47;4757057;30;20052;-57
2022/10/20 10:22:43;;;;;;;14.52;9.10;;;;;;;12.06;100.00;101120.69;4746922;30;20573;-55
2022/10/20 10:25:17;;;;;;;15.00;9.25;;;;;;;12.09;100.00;101132.97;4751982;30;20048;-55
2022/10/20 10:27:59;;;;;;;17.80;8.23;;;;;;;12.09;100.00;101133.78;4765838;30;20504;-55
2022/10/20 10:30:32;;;;;;;15.07;9.02;;;;;;;12.13;100.00;101134.06;4759672;30;20048;-53
2022/10/20 10:33:00;;;;;;;15.73;8.93;;;;;;;12.13;100.00;101123.16;4765630;30;20052;-59
2022/10/20 10:35:40;;;;;;;15.75;9.10;;;;;;;12.14;100.00;101119.31;4752634;30;20044;-56
2022/10/20 10:38:09;;;;;;;16.50;9.30;;;;;;;12.17;100.00;101112.50;4765973;30;20524;-58
2022/10/20 10:40:46;;;;;;;13.60;7.88;;;;;;;12.18;100.00;101109.50;4761178;30;20052;-56
2022/10/20 10:43:32;;;;;;;16.88;9.05;;;;;;;12.21;100.00;101097.19;4750034;30;20539;-54
2022/10/20 10:46:20;;;;;;;12.98;8.30;;;;;;;12.24;100.00;101096.66;4747820;30;20049;-61
2022/10/20 10:49:20;;;;;;;19.13;8.80;;;;;;;12.27;100.00;101096.13;4745595;30;20051;-59
2022/10/20 10:52:03;;;;;;;18.65;9.18;;;;;;;12.26;100.00;101106.22;4733051;30;20062;-59
2022/10/20 10:54:52;;;;;;;12.82;8.73;;;;;;;12.26;100.00;101095.28;4751686;30;20405;-55
2022/10/20 10:57:31;;;;;;;17.63;8.75;;;;;;;12.24;100.00;101096.66;4749795;30;20106;-57
2022/10/20 11:00:01;;;;;;;14.73;7.40;;;;;;;12.27;100.00;101080.53;4091743;30;10000621;-58
2022/10/20 11:02:38;;;;;;;16.75;8.57;;;;;;;12.28;100.00;101076.72;4763027;30;20044;-56
2022/10/20 11:05:12;;;;;;;15.90;8.38;;;;;;;12.33;100.00;101084.09;4756367;30;20147;-56
2022/10/20 11:07:55;;;;;;;17.73;9.68;;;;;;;12.30;100.00;101090.91;4739223;30;20460;-59
2022/10/20 11:10:53;;;;;;;15.10;8.65;;;;;;;12.28;100.00;101087.63;4748585;30;20064;-56
2022/10/20 11:13:52;;;;;;;16.05;9.18;;;;;;;12.28;100.00;101081.38;4749310;30;20114;-55
2022/10/20 11:16:45;;;;;;;17.60;8.70;;;;;;;12.28;100.00;101081.38;4740107;30;20519;-55
2022/10/20 11:19:22;;;;;;;16.60;10.27;;;;;;;12.29;100.00;101083.00;4747885;30;20064;-59
2022/10/20 11:22:10;;;;;;;21.02;9.57;;;;;;;12.29;100.00;101089.28;4751088;30;20048;-55
2022/10/20 11:24:59;;;;;;;14.40;8.52;;;;;;;12.29;100.00;101078.38;4763948;30;20102;-57
2022/10/20 11:27:33;;;;;;;18.25;9.68;;;;;;;12.29;100.00;101055.66;4752495;30;20060;-58
2022/10/20 11:30:06;;;;;;;16.25;9.13;;;;;;;12.30;100.00;101065.53;4765689;30;20071;-59
2022/10/20 11:33:16;;;;;;;16.77;8.48;;;;;;;12.32;100.00;101055.13;4752431;30;20048;-58
2022/10/20 11:36:00;;;;;;;15.48;8.88;;;;;;;12.32;100.00;101061.41;4749130;30;20106;-52